Time;durP1;ratioP1;P1;durP2;ratioP2;P2;SDS_P1;SDS_P2;PMS_P1;PMS_P2;Temp;Humidity;BMP_temperature;BMP_pressure;BME280_temperature;BME280_humidity;BME280_pressure;Samples;Min_cycle;Max_cycle;Signal;HPM_P1;HPM_P2
2023/02/06 00:01:45;;;;;;;23.80;5.70;;;;;;;;;;5037945;28;20176;-76
2023/02/06 00:04:11;;;;;;;42.20;6.13;;;;;;;;;;5037452;28;20171;-76
2023/02/06 00:06:37;;;;;;;28.90;7.25;;;;;;;;;;5037899;28;20196;-76
2023/02/06 00:09:04;;;;;;;31.42;6.05;;;;;;;;;;5038153;28;20211;-76
2023/02/06 00:11:29;;;;;;;39.92;6.22;;;;;;;;;;5037195;28;20226;-76
2023/02/06 00:13:55;;;;;;;23.75;5.38;;;;;;;;;;5036719;28;20187;-76
2023/02/06 00:16:23;;;;;;;29.47;5.87;;;;;;;;;;5037833;28;20182;-76
2023/02/06 00:18:49;;;;;;;30.88;6.95;;;;;;;;;;5038067;28;20413;-76
2023/02/06 00:21:19;;;;;;;41.83;7.00;;;;;;;;;;5036527;28;20181;-75
2023/02/06 00:23:45;;;;;;;37.65;7.07;;;;;;;;;;5037857;28;20174;-76
2023/02/06 00:26:11;;;;;;;33.33;7.45;;;;;;;;;;5037580;28;20184;-76
2023/02/06 00:28:37;;;;;;;27.08;7.38;;;;;;;;;;5036796;28;20230;-76
2023/02/06 00:31:07;;;;;;;28.45;6.80;;;;;;;;;;5037481;28;20182;-75
2023/02/06 00:33:33;;;;;;;33.65;6.03;;;;;;;;;;5035864;28;20278;-76
2023/02/06 00:35:59;;;;;;;32.55;6.72;;;;;;;;;;5036383;28;20190;-75
2023/02/06 00:38:25;;;;;;;35.33;5.80;;;;;;;;;;5037619;28;20315;-77
2023/02/06 00:40:51;;;;;;;31.83;6.75;;;;;;;;;;5037441;28;20645;-76
2023/02/06 00:43:17;;;;;;;22.47;5.97;;;;;;;;;;5037853;28;20182;-76
2023/02/06 00:45:43;;;;;;;32.70;6.50;;;;;;;;;;5037356;28;20401;-76
2023/02/06 00:48:09;;;;;;;27.92;6.00;;;;;;;;;;5037611;28;20402;-75
2023/02/06 00:50:35;;;;;;;25.42;6.85;;;;;;;;;;5038042;28;20202;-75
2023/02/06 00:53:01;;;;;;;33.80;7.13;;;;;;;;;;5037860;28;20204;-76
2023/02/06 00:55:27;;;;;;;19.53;6.00;;;;;;;;;;5037382;28;20271;-76
2023/02/06 00:57:53;;;;;;;19.30;4.88;;;;;;;;;;5038360;28;20450;-76
2023/02/06 01:00:19;;;;;;;28.00;6.43;;;;;;;;;;5038055;28;20632;-76
2023/02/06 01:02:45;;;;;;;39.13;10.27;;;;;;;;;;5037501;28;20401;-76
2023/02/06 01:05:11;;;;;;;30.20;5.10;;;;;;;;;;5038020;28;20197;-75
2023/02/06 01:07:38;;;;;;;38.38;7.00;;;;;;;;;;5037788;28;20191;-75
2023/02/06 01:10:05;;;;;;;31.73;5.65;;;;;;;;;;5037573;28;20257;-76
2023/02/06 01:12:31;;;;;;;28.42;5.38;;;;;;;;;;5035685;28;20210;-76
2023/02/06 01:14:57;;;;;;;21.60;5.17;;;;;;;;;;5040965;28;20191;-75
2023/02/06 01:17:23;;;;;;;20.38;5.10;;;;;;;;;;5043903;28;20503;-76
2023/02/06 01:19:49;;;;;;;26.40;6.50;;;;;;;;;;5043224;28;20219;-75
2023/02/06 01:22:15;;;;;;;30.13;5.30;;;;;;;;;;5044073;28;20884;-75
2023/02/06 01:24:41;;;;;;;52.57;6.57;;;;;;;;;;5044026;28;20413;-76
2023/02/06 01:27:06;;;;;;;29.30;7.30;;;;;;;;;;5043930;28;20420;-75
2023/02/06 01:29:32;;;;;;;25.33;5.33;;;;;;;;;;5075516;28;20421;-76
2023/02/06 01:31:58;;;;;;;30.90;6.35;;;;;;;;;;5042914;28;20560;-76
2023/02/06 01:34:24;;;;;;;31.17;6.07;;;;;;;;;;5043328;28;20525;-75
2023/02/06 01:36:50;;;;;;;27.17;6.25;;;;;;;;;;5043481;28;20179;-75
2023/02/06 01:39:16;;;;;;;28.90;6.10;;;;;;;;;;5059825;28;20687;-76
2023/02/06 01:41:42;;;;;;;34.50;5.80;;;;;;;;;;5043565;28;20175;-76
2023/02/06 01:44:11;;;;;;;22.73;6.15;;;;;;;;;;5044341;28;20190;-75
2023/02/06 01:46:38;;;;;;;30.65;5.63;;;;;;;;;;5043768;28;20209;-76
2023/02/06 01:49:04;;;;;;;27.98;5.80;;;;;;;;;;5043169;28;20632;-75
2023/02/06 01:51:31;;;;;;;18.08;5.18;;;;;;;;;;5075685;28;20189;-76
2023/02/06 01:53:59;;;;;;;29.88;7.07;;;;;;;;;;5043696;28;20265;-75
2023/02/06 01:56:26;;;;;;;34.70;6.32;;;;;;;;;;5043929;28;20217;-75
2023/02/06 01:58:53;;;;;;;25.42;6.07;;;;;;;;;;5043176;28;20189;-76
2023/02/06 02:01:20;;;;;;;23.75;7.53;;;;;;;;;;5044372;28;20249;-75
2023/02/06 02:03:47;;;;;;;26.88;6.38;;;;;;;;;;5042699;28;20182;-75
2023/02/06 02:06:14;;;;;;;37.08;6.18;;;;;;;;;;5043243;28;20214;-75
2023/02/06 02:08:42;;;;;;;31.58;5.43;;;;;;;;;;5043315;28;20264;-76
2023/02/06 02:11:10;;;;;;;26.70;5.10;;;;;;;;;;5043565;28;20178;-75
2023/02/06 02:13:37;;;;;;;31.90;6.00;;;;;;;;;;5043156;28;20190;-76
2023/02/06 02:16:23;;;;;;;25.23;5.03;;;;;;;;;;5043428;28;20250;-75
2023/02/06 02:18:57;;;;;;;25.33;5.25;;;;;;;;;;5043314;28;20501;-75
2023/02/06 02:21:31;;;;;;;25.50;6.68;;;;;;;;;;5043373;28;20194;-75
2023/02/06 02:24:08;;;;;;;21.83;6.65;;;;;;;;;;5043753;28;20557;-75
2023/02/06 02:26:37;;;;;;;32.15;7.40;;;;;;;;;;5040460;28;20688;-76
2023/02/06 02:29:09;;;;;;;40.70;7.65;;;;;;;;;;5040835;28;20177;-75
2023/02/06 02:31:41;;;;;;;23.40;4.13;;;;;;;;;;5040214;28;20180;-76
2023/02/06 02:34:26;;;;;;;16.13;4.85;;;;;;;;;;5040394;28;20186;-75
2023/02/06 02:37:06;;;;;;;23.50;6.53;;;;;;;;;;5039885;28;20182;-75
2023/02/06 02:39:38;;;;;;;32.10;6.30;;;;;;;;;;5040176;28;20241;-76
2023/02/06 02:42:10;;;;;;;34.55;7.45;;;;;;;;;;5040510;28;20166;-76
2023/02/06 02:44:45;;;;;;;23.10;6.38;;;;;;;;;;5040042;28;20178;-76
2023/02/06 02:47:12;;;;;;;22.65;5.97;;;;;;;;;;5040015;28;20174;-76
2023/02/06 02:49:39;;;;;;;27.67;7.43;;;;;;;;;;5039542;28;20179;-76
2023/02/06 02:52:05;;;;;;;24.02;4.97;;;;;;;;;;5040169;28;20558;-75
2023/02/06 02:54:31;;;;;;;29.50;5.65;;;;;;;;;;5040113;28;20182;-75
2023/02/06 02:57:00;;;;;;;29.03;5.40;;;;;;;;;;5040152;28;20237;-76
2023/02/06 02:59:37;;;;;;;25.80;6.88;;;;;;;;;;5040228;28;20405;-76
2023/02/06 03:02:06;;;;;;;25.40;5.40;;;;;;;;;;5039800;28;20662;-75
2023/02/06 03:04:50;;;;;;;23.17;5.88;;;;;;;;;;5038787;28;20516;-75
2023/02/06 03:07:16;;;;;;;24.30;6.47;;;;;;;;;;5071858;28;20186;-75
2023/02/06 03:09:52;;;;;;;23.63;5.83;;;;;;;;;;5039433;28;20615;-75
2023/02/06 03:12:24;;;;;;;27.50;6.00;;;;;;;;;;5039944;28;20458;-76
2023/02/06 03:15:03;;;;;;;20.48;6.20;;;;;;;;;;5039589;28;20174;-76
2023/02/06 03:17:32;;;;;;;29.60;6.45;;;;;;;;;;5039831;28;20180;-76
2023/02/06 03:19:59;;;;;;;21.13;5.07;;;;;;;;;;5039579;28;20505;-75
2023/02/06 03:22:26;;;;;;;25.23;6.65;;;;;;;;;;5039755;28;20230;-76
2023/02/06 03:24:52;;;;;;;28.77;7.40;;;;;;;;;;5039522;28;20235;-75
2023/02/06 03:27:20;;;;;;;26.65;6.78;;;;;;;;;;5039792;28;20170;-76
2023/02/06 03:29:46;;;;;;;22.33;5.72;;;;;;;;;;5039509;28;20530;-76
2023/02/06 03:32:15;;;;;;;18.55;6.20;;;;;;;;;;5038023;28;20292;-76
2023/02/06 03:34:53;;;;;;;26.38;6.93;;;;;;;;;;5038700;28;20320;-76
2023/02/06 03:37:21;;;;;;;35.67;6.93;;;;;;;;;;5037976;28;20213;-76
2023/02/06 03:39:47;;;;;;;28.33;6.40;;;;;;;;;;5038165;28;20177;-76
2023/02/06 03:42:14;;;;;;;40.05;7.28;;;;;;;;;;5039741;28;20209;-76
2023/02/06 03:44:43;;;;;;;29.48;6.97;;;;;;;;;;5039212;28;20193;-76
2023/02/06 03:47:10;;;;;;;28.05;6.97;;;;;;;;;;5070998;28;20647;-76
2023/02/06 03:49:38;;;;;;;41.33;8.43;;;;;;;;;;5039107;28;20184;-77
2023/02/06 03:52:04;;;;;;;36.25;7.95;;;;;;;;;;5039063;28;20237;-76
2023/02/06 03:54:30;;;;;;;36.40;7.20;;;;;;;;;;5038914;28;20186;-76
2023/02/06 03:56:59;;;;;;;29.60;6.45;;;;;;;;;;5038861;28;20242;-76
2023/02/06 03:59:25;;;;;;;30.08;6.85;;;;;;;;;;5038754;28;20170;-76
2023/02/06 04:01:53;;;;;;;28.92;6.78;;;;;;;;;;5038728;28;20179;-76
2023/02/06 04:04:20;;;;;;;28.75;6.50;;;;;;;;;;5039096;28;20217;-75
2023/02/06 04:06:46;;;;;;;24.35;6.65;;;;;;;;;;5038020;28;20193;-76
2023/02/06 04:09:12;;;;;;;29.40;7.07;;;;;;;;;;5038122;28;20193;-76
2023/02/06 04:11:38;;;;;;;33.85;7.95;;;;;;;;;;5038075;28;20645;-76
2023/02/06 04:14:04;;;;;;;28.60;7.15;;;;;;;;;;5038416;28;20189;-75
2023/02/06 04:16:30;;;;;;;38.20;7.63;;;;;;;;;;5070437;28;20245;-76
2023/02/06 04:18:56;;;;;;;31.50;6.93;;;;;;;;;;5038406;28;20185;-76
2023/02/06 04:21:22;;;;;;;28.40;8.18;;;;;;;;;;5039488;28;20277;-76
2023/02/06 04:23:48;;;;;;;25.63;8.10;;;;;;;;;;5038407;28;20179;-76
2023/02/06 04:26:14;;;;;;;47.45;7.47;;;;;;;;;;5038699;28;20499;-76
2023/02/06 04:28:40;;;;;;;26.92;6.50;;;;;;;;;;5037810;28;20185;-76
2023/02/06 04:31:06;;;;;;;26.95;7.50;;;;;;;;;;5039234;28;20177;-76
2023/02/06 04:33:32;;;;;;;27.92;6.72;;;;;;;;;;5038305;28;20213;-76
2023/02/06 04:35:58;;;;;;;30.90;8.05;;;;;;;;;;5037613;28;20193;-76
2023/02/06 04:38:24;;;;;;;45.23;9.23;;;;;;;;;;5038033;28;20178;-76
2023/02/06 04:40:50;;;;;;;25.67;7.10;;;;;;;;;;5038655;28;20416;-75
2023/02/06 04:43:16;;;;;;;25.67;6.95;;;;;;;;;;5037134;28;20182;-76
2023/02/06 04:45:42;;;;;;;27.50;7.90;;;;;;;;;;5070546;28;20197;-76
2023/02/06 04:48:08;;;;;;;27.50;7.85;;;;;;;;;;5038320;28;20397;-76
2023/02/06 04:50:34;;;;;;;40.72;9.57;;;;;;;;;;5038016;28;20716;-76
2023/02/06 04:53:00;;;;;;;44.80;8.02;;;;;;;;;;5038175;28;20210;-76
2023/02/06 04:55:26;;;;;;;31.95;8.57;;;;;;;;;;5037553;28;20566;-76
2023/02/06 04:57:52;;;;;;;26.25;8.18;;;;;;;;;;5036669;28;20611;-75
2023/02/06 05:00:18;;;;;;;37.60;10.80;;;;;;;;;;5037872;28;20261;-76
2023/02/06 05:02:44;;;;;;;25.48;7.53;;;;;;;;;;5037506;28;20537;-76
2023/02/06 05:05:10;;;;;;;28.53;8.00;;;;;;;;;;5037608;28;20174;-76
2023/02/06 05:07:36;;;;;;;38.40;8.40;;;;;;;;;;5037465;28;20425;-76
2023/02/06 05:10:03;;;;;;;30.17;8.63;;;;;;;;;;5037783;28;20179;-76
2023/02/06 05:12:28;;;;;;;24.73;8.45;;;;;;;;;;5037366;28;20744;-76
2023/02/06 05:14:55;;;;;;;26.43;7.83;;;;;;;;;;5037024;28;20190;-75
2023/02/06 05:17:21;;;;;;;24.80;7.70;;;;;;;;;;5069343;28;20471;-75
2023/02/06 05:19:47;;;;;;;33.15;7.45;;;;;;;;;;5037467;28;20582;-76
2023/02/06 05:22:13;;;;;;;32.13;9.55;;;;;;;;;;5037744;28;20231;-75
2023/02/06 05:24:39;;;;;;;30.60;8.60;;;;;;;;;;5037960;28;20170;-76
2023/02/06 05:27:04;;;;;;;27.70;6.87;;;;;;;;;;5037719;28;20182;-75
2023/02/06 05:29:30;;;;;;;26.88;8.02;;;;;;;;;;5037947;28;20471;-76
2023/02/06 05:31:56;;;;;;;37.10;8.07;;;;;;;;;;5037204;28;20225;-76
2023/02/06 05:34:22;;;;;;;31.23;7.77;;;;;;;;;;5037620;28;20634;-76
2023/02/06 05:36:48;;;;;;;33.42;9.18;;;;;;;;;;5068766;28;20433;-76
2023/02/06 05:39:14;;;;;;;43.10;8.20;;;;;;;;;;5037996;28;20225;-76
2023/02/06 05:41:40;;;;;;;26.73;7.87;;;;;;;;;;5037281;28;20413;-75
2023/02/06 05:44:06;;;;;;;21.57;7.60;;;;;;;;;;5037337;28;20431;-75
2023/02/06 05:46:32;;;;;;;37.88;8.20;;;;;;;;;;5037858;28;20748;-76
2023/02/06 05:48:58;;;;;;;28.80;8.10;;;;;;;;;;5037391;28;20182;-76
2023/02/06 05:51:24;;;;;;;37.05;7.15;;;;;;;;;;5069470;28;20820;-76
2023/02/06 05:53:50;;;;;;;35.60;9.13;;;;;;;;;;5037446;28;20267;-76
2023/02/06 05:56:16;;;;;;;35.47;8.53;;;;;;;;;;5037825;28;20582;-75
2023/02/06 05:58:42;;;;;;;44.80;8.87;;;;;;;;;;5037823;28;20470;-76
2023/02/06 06:01:10;;;;;;;31.17;7.77;;;;;;;;;;5038221;28;20409;-76
2023/02/06 06:03:37;;;;;;;24.60;8.73;;;;;;;;;;5041337;28;20416;-75
2023/02/06 06:06:03;;;;;;;28.77;7.70;;;;;;;;;;5040923;28;20190;-76
2023/02/06 06:08:29;;;;;;;41.55;8.82;;;;;;;;;;5040789;28;20611;-76
2023/02/06 06:10:55;;;;;;;42.50;7.73;;;;;;;;;;5040105;28;20200;-75
2023/02/06 06:13:21;;;;;;;34.30;9.23;;;;;;;;;;5041136;28;20977;-75
2023/02/06 06:15:50;;;;;;;32.70;8.43;;;;;;;;;;5040749;28;20178;-76
2023/02/06 06:18:17;;;;;;;30.50;8.32;;;;;;;;;;5040810;28;20738;-75
2023/02/06 06:20:43;;;;;;;49.28;9.50;;;;;;;;;;5072536;28;20205;-75
2023/02/06 06:23:09;;;;;;;49.72;11.30;;;;;;;;;;5040377;28;20544;-75
2023/02/06 06:25:35;;;;;;;42.10;9.77;;;;;;;;;;5040293;28;20193;-75
2023/02/06 06:28:01;;;;;;;34.83;9.70;;;;;;;;;;5040694;28;20520;-75
2023/02/06 06:30:27;;;;;;;40.08;10.18;;;;;;;;;;5040496;28;20236;-76
2023/02/06 06:32:53;;;;;;;43.60;9.68;;;;;;;;;;5039891;28;20202;-76
2023/02/06 06:35:19;;;;;;;52.30;11.80;;;;;;;;;;5040551;28;20174;-75
2023/02/06 06:37:45;;;;;;;61.00;11.23;;;;;;;;;;5040623;28;20266;-77
2023/02/06 06:40:11;;;;;;;55.08;11.35;;;;;;;;;;5040667;28;20202;-75
2023/02/06 06:42:37;;;;;;;37.13;10.02;;;;;;;;;;5040554;28;20181;-75
2023/02/06 06:45:04;;;;;;;27.30;8.90;;;;;;;;;;5040049;28;20179;-75
2023/02/06 06:47:30;;;;;;;41.92;9.55;;;;;;;;;;5039867;28;20413;-75
2023/02/06 06:49:56;;;;;;;45.03;10.20;;;;;;;;;;5039132;28;20178;-75
2023/02/06 06:52:22;;;;;;;40.83;11.13;;;;;;;;;;5039675;28;20551;-75
2023/02/06 06:54:48;;;;;;;60.63;11.95;;;;;;;;;;5040003;28;20177;-76
2023/02/06 06:57:14;;;;;;;54.40;11.75;;;;;;;;;;5039373;28;20699;-75
2023/02/06 06:59:40;;;;;;;60.95;11.63;;;;;;;;;;5040126;28;20178;-75
2023/02/06 07:02:07;;;;;;;76.60;13.05;;;;;;;;;;5039908;28;20178;-75
2023/02/06 07:04:33;;;;;;;78.15;12.32;;;;;;;;;;5039719;28;20207;-75
2023/02/06 07:06:59;;;;;;;83.95;13.38;;;;;;;;;;5039199;28;20199;-74
2023/02/06 07:09:25;;;;;;;93.18;13.70;;;;;;;;;;5039631;28;20244;-75
2023/02/06 07:11:51;;;;;;;56.40;12.77;;;;;;;;;;5039377;28;20202;-75
2023/02/06 07:14:17;;;;;;;64.77;13.53;;;;;;;;;;5040150;28;20406;-74
2023/02/06 07:16:43;;;;;;;110.77;16.67;;;;;;;;;;5039979;28;20834;-74
2023/02/06 07:19:09;;;;;;;93.32;14.25;;;;;;;;;;5038657;28;20522;-75
2023/02/06 07:21:35;;;;;;;117.32;18.98;;;;;;;;;;5038511;28;20276;-75
2023/02/06 07:24:04;;;;;;;92.53;18.17;;;;;;;;;;5038945;28;20174;-74
2023/02/06 07:26:30;;;;;;;145.48;19.38;;;;;;;;;;5038033;28;20635;-75
2023/02/06 07:28:56;;;;;;;147.27;18.58;;;;;;;;;;5038065;28;20190;-75
2023/02/06 07:31:22;;;;;;;100.25;17.10;;;;;;;;;;5039490;28;20190;-75
2023/02/06 07:33:48;;;;;;;143.00;22.23;;;;;;;;;;5039475;28;20209;-75
2023/02/06 07:36:17;;;;;;;118.55;19.20;;;;;;;;;;5038649;28;20635;-75
2023/02/06 07:38:43;;;;;;;113.40;23.42;;;;;;;;;;5039279;28;20164;-75
2023/02/06 07:41:09;;;;;;;121.78;18.80;;;;;;;;;;5038809;28;20170;-75
2023/02/06 07:43:35;;;;;;;142.20;25.53;;;;;;;;;;5039110;28;20265;-75
2023/02/06 07:46:02;;;;;;;134.17;28.97;;;;;;;;;;5039217;28;20406;-75
2023/02/06 07:48:28;;;;;;;150.98;30.30;;;;;;;;;;5037757;28;20444;-75
2023/02/06 07:50:54;;;;;;;166.45;27.23;;;;;;;;;;5038626;28;20206;-75
2023/02/06 07:53:20;;;;;;;133.70;28.30;;;;;;;;;;5038860;28;20565;-75
2023/02/06 07:55:46;;;;;;;105.10;23.47;;;;;;;;;;5037872;28;20180;-75
2023/02/06 07:58:12;;;;;;;116.60;22.45;;;;;;;;;;5038548;28;20390;-75
2023/02/06 08:00:39;;;;;;;101.20;21.33;;;;;;;;;;5038151;28;20270;-75
2023/02/06 08:03:05;;;;;;;164.30;31.05;;;;;;;;;;5037442;28;20405;-75
2023/02/06 08:05:32;;;;;;;95.78;22.80;;;;;;;;;;5038517;28;20230;-75
2023/02/06 08:07:58;;;;;;;104.97;22.83;;;;;;;;;;5038537;28;20187;-75
2023/02/06 08:10:24;;;;;;;144.70;25.87;;;;;;;;;;5037965;28;20187;-75
2023/02/06 08:12:50;;;;;;;83.63;19.70;;;;;;;;;;5038127;28;20475;-75
2023/02/06 08:15:16;;;;;;;82.77;21.23;;;;;;;;;;5036892;28;20640;-75
2023/02/06 08:17:42;;;;;;;82.65;21.55;;;;;;;;;;5036620;28;20403;-75
2023/02/06 08:20:11;;;;;;;92.18;21.92;;;;;;;;;;5037728;28;20517;-75
2023/02/06 08:22:38;;;;;;;97.55;22.90;;;;;;;;;;5038324;28;20191;-75
2023/02/06 08:25:04;;;;;;;81.30;20.95;;;;;;;;;;5037229;28;20183;-75
2023/02/06 08:27:30;;;;;;;69.30;22.85;;;;;;;;;;5070127;28;20230;-75
2023/02/06 08:29:58;;;;;;;72.95;20.88;;;;;;;;;;5037883;28;20181;-76
2023/02/06 08:32:25;;;;;;;87.00;20.70;;;;;;;;;;5070232;28;20634;-75
2023/02/06 08:34:51;;;;;;;103.28;21.08;;;;;;;;;;5037730;28;20181;-76
2023/02/06 08:37:18;;;;;;;72.20;20.55;;;;;;;;;;5036607;28;20239;-82
2023/02/06 08:39:44;;;;;;;131.25;23.85;;;;;;;;;;5036704;28;20196;-76
2023/02/06 08:42:11;;;;;;;91.17;21.10;;;;;;;;;;5036536;28;20189;-75
2023/02/06 08:44:37;;;;;;;107.13;21.45;;;;;;;;;;5035809;28;20414;-76
2023/02/06 08:47:03;;;;;;;95.57;21.80;;;;;;;;;;5035494;28;20253;-77
2023/02/06 08:49:29;;;;;;;72.67;19.97;;;;;;;;;;5037108;28;20411;-82
2023/02/06 08:51:55;;;;;;;79.43;20.70;;;;;;;;;;5036437;28;20421;-77
2023/02/06 08:54:22;;;;;;;97.45;22.80;;;;;;;;;;5036916;28;20221;-77
2023/02/06 08:56:49;;;;;;;101.65;24.08;;;;;;;;;;5068817;28;20230;-76
2023/02/06 08:59:16;;;;;;;81.60;20.95;;;;;;;;;;5036717;28;20737;-76
2023/02/06 09:01:44;;;;;;;77.97;19.92;;;;;;;;;;5036831;28;20266;-76
2023/02/06 09:04:11;;;;;;;105.00;22.95;;;;;;;;;;5036580;28;20163;-76
2023/02/06 09:06:38;;;;;;;103.68;22.95;;;;;;;;;;5036656;28;20289;-76
2023/02/06 09:09:04;;;;;;;84.85;20.13;;;;;;;;;;5036935;28;20172;-77
2023/02/06 09:11:31;;;;;;;86.75;21.77;;;;;;;;;;5037343;28;20175;-76
2023/02/06 09:13:58;;;;;;;121.57;24.27;;;;;;;;;;5018270;28;20673;-77
2023/02/06 09:16:24;;;;;;;101.03;23.05;;;;;;;;;;5036493;28;20185;-76
2023/02/06 09:18:52;;;;;;;99.00;22.73;;;;;;;;;;5036932;28;20182;-76
2023/02/06 09:21:25;;;;;;;94.05;21.88;;;;;;;;;;5036467;28;20542;-76
2023/02/06 09:23:53;;;;;;;80.57;21.05;;;;;;;;;;5035748;28;20253;-76
2023/02/06 09:26:20;;;;;;;79.55;26.50;;;;;;;;;;5036728;28;20170;-76
2023/02/06 09:28:46;;;;;;;99.97;25.60;;;;;;;;;;5036564;28;20184;-76
2023/02/06 09:31:12;;;;;;;127.82;25.98;;;;;;;;;;5036337;28;20197;-76
2023/02/06 09:33:39;;;;;;;83.40;23.85;;;;;;;;;;5036425;28;20213;-76
2023/02/06 09:36:07;;;;;;;104.15;24.35;;;;;;;;;;5038209;28;20193;-77
2023/02/06 09:38:33;;;;;;;89.68;24.75;;;;;;;;;;5041164;28;20178;-76
2023/02/06 09:41:01;;;;;;;146.82;27.17;;;;;;;;;;5034251;28;20188;-77
2023/02/06 09:43:28;;;;;;;71.95;18.33;;;;;;;;;;5022458;28;20260;-77
2023/02/06 09:45:59;;;;;;;60.17;19.63;;;;;;;;;;5026002;28;20187;-77
2023/02/06 09:48:26;;;;;;;55.65;19.80;;;;;;;;;;5071647;28;20209;-76
2023/02/06 09:50:57;;;;;;;44.67;17.45;;;;;;;;;;5054006;28;20180;-77
2023/02/06 09:53:34;;;;;;;33.78;14.43;;;;;;;;;;5052064;28;20552;-76
2023/02/06 09:56:19;;;;;;;30.52;11.70;;;;;;;;;;5039983;28;21600;-77
2023/02/06 09:58:55;;;;;;;44.90;14.35;;;;;;;;;;5040259;28;20203;-77
2023/02/06 10:01:21;;;;;;;39.25;16.95;;;;;;;;;;5040296;28;20175;-76
2023/02/06 10:03:56;;;;;;;36.17;14.03;;;;;;;;;;5040162;28;20182;-76
2023/02/06 10:06:24;;;;;;;36.30;14.00;;;;;;;;;;5039487;28;20423;-79
2023/02/06 10:08:50;;;;;;;30.15;14.20;;;;;;;;;;5039529;28;20173;-77
2023/02/06 10:11:23;;;;;;;41.00;15.00;;;;;;;;;;5038171;28;20181;-77
2023/02/06 10:13:54;;;;;;;49.45;14.68;;;;;;;;;;5039505;28;20681;-76
2023/02/06 10:16:29;;;;;;;43.42;16.10;;;;;;;;;;5039780;28;20182;-76
2023/02/06 10:18:58;;;;;;;45.45;16.80;;;;;;;;;;5038595;28;20172;-76
2023/02/06 10:21:24;;;;;;;32.08;14.43;;;;;;;;;;5039957;28;20181;-76
2023/02/06 10:24:02;;;;;;;35.45;15.57;;;;;;;;;;5040312;28;20224;-76
2023/02/06 10:26:28;;;;;;;47.75;15.95;;;;;;;;;;5039338;28;20174;-76
2023/02/06 10:28:56;;;;;;;40.85;17.73;;;;;;;;;;5038477;28;20660;-77
2023/02/06 10:31:28;;;;;;;34.45;13.48;;;;;;;;;;5039137;28;20181;-76
2023/02/06 10:34:12;;;;;;;40.28;15.10;;;;;;;;;;5072361;28;20215;-76
2023/02/06 10:36:54;;;;;;;35.55;12.90;;;;;;;;;;5071292;28;20181;-76
2023/02/06 10:39:30;;;;;;;38.42;13.52;;;;;;;;;;5039173;28;20179;-76
2023/02/06 10:42:01;;;;;;;38.22;13.50;;;;;;;;;;5039387;28;20170;-76
2023/02/06 10:44:27;;;;;;;39.65;14.77;;;;;;;;;;5039443;28;20188;-76
2023/02/06 10:46:54;;;;;;;36.90;14.17;;;;;;;;;;5038538;28;20176;-76
2023/02/06 10:49:29;;;;;;;41.53;17.45;;;;;;;;;;5038702;28;20408;-76
2023/02/06 10:52:00;;;;;;;29.70;13.73;;;;;;;;;;5039594;28;20162;-76
2023/02/06 10:54:28;;;;;;;39.35;15.60;;;;;;;;;;5039339;28;20253;-76
2023/02/06 10:56:56;;;;;;;30.23;13.32;;;;;;;;;;5039041;28;20237;-76
2023/02/06 10:59:31;;;;;;;36.03;16.52;;;;;;;;;;5038700;28;20233;-76
2023/02/06 11:02:15;;;;;;;27.92;13.40;;;;;;;;;;5070836;28;20231;-76
2023/02/06 11:04:44;;;;;;;37.22;14.93;;;;;;;;;;5039081;28;20163;-76
2023/02/06 11:07:20;;;;;;;36.75;14.15;;;;;;;;;;5038650;28;20190;-76
2023/02/06 11:09:46;;;;;;;42.08;18.52;;;;;;;;;;5038841;28;20550;-76
2023/02/06 11:12:23;;;;;;;35.00;13.40;;;;;;;;;;5038111;28;20213;-76
2023/02/06 11:14:50;;;;;;;40.47;15.95;;;;;;;;;;5038418;28;20423;-76
2023/02/06 11:17:18;;;;;;;33.50;14.60;;;;;;;;;;5038991;28;20195;-76
2023/02/06 11:19:44;;;;;;;31.42;14.82;;;;;;;;;;5038610;28;20170;-76
2023/02/06 11:22:11;;;;;;;33.97;13.02;;;;;;;;;;5037204;28;20190;-76
2023/02/06 11:24:38;;;;;;;41.53;16.30;;;;;;;;;;5038366;28;20173;-76
2023/02/06 11:27:14;;;;;;;43.63;18.40;;;;;;;;;;5038476;28;20170;-77
2023/02/06 11:29:44;;;;;;;35.92;17.75;;;;;;;;;;5038476;28;20271;-76
2023/02/06 11:32:25;;;;;;;36.17;16.80;;;;;;;;;;5037476;28;20205;-76
2023/02/06 11:34:54;;;;;;;31.23;15.43;;;;;;;;;;5038139;28;20657;-76
2023/02/06 11:37:29;;;;;;;38.92;15.40;;;;;;;;;;5038003;28;20228;-77
2023/02/06 11:40:13;;;;;;;30.27;14.00;;;;;;;;;;5037027;28;20186;-76
2023/02/06 11:42:38;;;;;;;33.25;15.15;;;;;;;;;;5038795;28;20207;-76
2023/02/06 11:45:17;;;;;;;33.23;14.73;;;;;;;;;;5036471;28;20204;-77
2023/02/06 11:47:43;;;;;;;27.00;15.05;;;;;;;;;;5037813;28;20391;-76
2023/02/06 11:50:12;;;;;;;29.40;15.47;;;;;;;;;;5037892;28;20713;-77
2023/02/06 11:52:39;;;;;;;31.15;13.65;;;;;;;;;;5038098;28;20461;-76
2023/02/06 11:55:05;;;;;;;31.55;12.25;;;;;;;;;;5037511;28;20174;-80
2023/02/06 11:57:32;;;;;;;28.50;14.20;;;;;;;;;;5038187;28;20612;-77
2023/02/06 12:00:00;;;;;;;33.90;13.05;;;;;;;;;;5036801;28;20199;-76
2023/02/06 12:02:36;;;;;;;31.40;12.63;;;;;;;;;;5035534;28;20167;-76
2023/02/06 12:05:02;;;;;;;28.15;12.45;;;;;;;;;;5026609;28;20179;-77
2023/02/06 12:07:32;;;;;;;23.08;11.82;;;;;;;;;;5037533;28;20208;-76
2023/02/06 12:10:01;;;;;;;25.67;12.30;;;;;;;;;;5037993;28;20683;-76
2023/02/06 12:12:35;;;;;;;30.45;12.45;;;;;;;;;;5037131;28;20230;-76
2023/02/06 12:15:04;;;;;;;27.92;12.90;;;;;;;;;;5037664;28;20530;-76
2023/02/06 12:17:32;;;;;;;29.63;13.82;;;;;;;;;;5037274;28;20171;-77
2023/02/06 12:20:07;;;;;;;28.50;12.43;;;;;;;;;;5036870;28;20613;-77
2023/02/06 12:22:39;;;;;;;34.70;14.15;;;;;;;;;;5036990;28;20231;-76
2023/02/06 12:25:10;;;;;;;31.00;13.10;;;;;;;;;;5037222;28;20260;-76
2023/02/06 12:27:37;;;;;;;28.20;11.10;;;;;;;;;;5038258;28;20189;-77
2023/02/06 12:30:06;;;;;;;22.77;11.77;;;;;;;;;;5037263;28;20622;-76
2023/02/06 12:32:36;;;;;;;30.63;12.60;;;;;;;;;;5037314;28;20200;-76
2023/02/06 12:35:14;;;;;;;25.17;11.38;;;;;;;;;;5037402;28;20232;-76
2023/02/06 12:37:43;;;;;;;22.00;10.32;;;;;;;;;;5035831;28;20195;-76
2023/02/06 12:40:19;;;;;;;21.30;9.70;;;;;;;;;;5035707;28;20181;-77
2023/02/06 12:42:55;;;;;;;26.63;11.15;;;;;;;;;;5037712;28;20177;-76
2023/02/06 12:45:44;;;;;;;22.02;9.60;;;;;;;;;;5036983;28;20180;-76
2023/02/06 12:48:16;;;;;;;28.63;11.48;;;;;;;;;;5028646;28;20190;-77
2023/02/06 12:50:46;;;;;;;21.65;9.90;;;;;;;;;;5035915;28;20174;-77
2023/02/06 12:53:12;;;;;;;17.83;8.90;;;;;;;;;;5036452;28;20194;-77
2023/02/06 12:55:40;;;;;;;23.50;8.97;;;;;;;;;;5036258;28;20183;-76
2023/02/06 12:58:22;;;;;;;24.67;8.60;;;;;;;;;;5036363;28;20423;-76
2023/02/06 13:01:07;;;;;;;22.13;9.40;;;;;;;;;;5035201;28;20264;-76
2023/02/06 13:03:56;;;;;;;16.35;8.20;;;;;;;;;;5034840;28;20184;-76
2023/02/06 13:06:25;;;;;;;19.30;10.98;;;;;;;;;;5017512;28;20274;-76
2023/02/06 13:08:58;;;;;;;28.23;11.48;;;;;;;;;;5034214;28;20206;-76
2023/02/06 13:11:27;;;;;;;26.50;11.40;;;;;;;;;;5067609;28;20185;-76
2023/02/06 13:14:19;;;;;;;20.75;10.60;;;;;;;;;;5035895;28;20259;-76
2023/02/06 13:16:57;;;;;;;22.25;9.30;;;;;;;;;;5033860;28;20273;-76
2023/02/06 13:19:28;;;;;;;24.08;12.10;;;;;;;;;;5051248;28;20583;-76
2023/02/06 13:22:18;;;;;;;23.77;13.23;;;;;;;;;;5036179;28;20509;-76
2023/02/06 13:24:44;;;;;;;20.75;9.98;;;;;;;;;;5036080;28;20182;-76
2023/02/06 13:27:15;;;;;;;28.60;13.30;;;;;;;;;;5033889;28;20170;-78
2023/02/06 13:29:41;;;;;;;27.23;9.70;;;;;;;;;;5035697;28;20541;-76
2023/02/06 13:34:56;;;;;;;39.83;12.13;;;;;;;;;;5035753;28;20500;-76
2023/02/06 13:37:31;;;;;;;23.77;9.80;;;;;;;;;;5023468;28;20217;-76
2023/02/06 13:40:16;;;;;;;28.92;10.27;;;;;;;;;;5035452;28;20177;-76
2023/02/06 13:43:01;;;;;;;27.02;9.70;;;;;;;;;;5035392;28;20186;-76
2023/02/06 13:45:32;;;;;;;23.88;9.30;;;;;;;;;;5033787;28;20275;-76
2023/02/06 13:48:01;;;;;;;27.45;10.50;;;;;;;;;;5035246;28;20529;-76
2023/02/06 13:50:33;;;;;;;24.20;8.98;;;;;;;;;;5033597;28;20223;-76
2023/02/06 13:53:14;;;;;;;24.77;10.48;;;;;;;;;;5035070;28;20210;-76
2023/02/06 13:55:47;;;;;;;24.92;8.63;;;;;;;;;;5067624;28;20239;-77
2023/02/06 13:58:29;;;;;;;23.63;10.25;;;;;;;;;;5035286;28;20179;-77
2023/02/06 14:00:56;;;;;;;23.17;9.13;;;;;;;;;;5080881;28;20241;-76
2023/02/06 14:03:25;;;;;;;23.50;8.70;;;;;;;;;;5055586;28;20170;-76
2023/02/06 14:05:59;;;;;;;18.90;9.25;;;;;;;;;;5056009;28;20178;-76
2023/02/06 14:08:25;;;;;;;26.02;8.93;;;;;;;;;;5055167;28;20508;-77
2023/02/06 14:11:09;;;;;;;24.98;11.55;;;;;;;;;;5055696;28;20166;-76
2023/02/06 14:13:50;;;;;;;26.30;9.55;;;;;;;;;;5054564;28;20211;-76
2023/02/06 14:16:35;;;;;;;27.52;10.70;;;;;;;;;;5055483;28;20186;-77
2023/02/06 14:19:01;;;;;;;26.83;10.52;;;;;;;;;;5055280;28;20173;-76
2023/02/06 14:21:27;;;;;;;24.10;11.07;;;;;;;;;;5052989;28;20284;-77
2023/02/06 14:24:02;;;;;;;24.80;10.07;;;;;;;;;;5027869;28;20417;-77
2023/02/06 14:26:28;;;;;;;20.10;10.40;;;;;;;;;;5038431;28;20446;-77
2023/02/06 14:29:06;;;;;;;29.83;10.83;;;;;;;;;;5039422;28;20189;-77
2023/02/06 14:31:45;;;;;;;35.47;11.52;;;;;;;;;;5070786;28;20417;-77
2023/02/06 14:34:36;;;;;;;28.33;12.05;;;;;;;;;;5038789;28;20275;-77
2023/02/06 14:37:09;;;;;;;23.42;11.38;;;;;;;;;;5070882;28;20203;-77